Time;durP1;ratioP1;P1;durP2;ratioP2;P2;SDS_P1;SDS_P2;PMS_P1;PMS_P2;Temp;Humidity;BMP_temperature;BMP_pressure;BME280_temperature;BME280_humidity;BME280_pressure;Samples;Min_cycle;Max_cycle;Signal;HPM_P1;HPM_P2
2021/09/03 00:00:29;;;;;;;24.03;18.60;;;;;;;;;;6148536;23;20210;-65
2021/09/03 00:03:15;;;;;;;24.67;18.17;;;;;;;;;;6147605;23;20319;-65
2021/09/03 00:06:00;;;;;;;25.45;20.98;;;;;;;;;;6145997;23;20500;-65
2021/09/03 00:08:45;;;;;;;23.23;18.80;;;;;;;;;;6148019;23;20208;-64
2021/09/03 00:11:30;;;;;;;27.20;19.17;;;;;;;;;;6148210;23;20696;-65
2021/09/03 00:14:15;;;;;;;25.60;19.73;;;;;;;;;;6146792;23;20174;-65
2021/09/03 00:17:00;;;;;;;24.67;17.97;;;;;;;;;;6147944;23;20221;-65
2021/09/03 00:19:46;;;;;;;25.20;19.07;;;;;;;;;;6147354;23;20206;-65
2021/09/03 00:22:31;;;;;;;23.17;18.60;;;;;;;;;;6147880;23;20274;-65
2021/09/03 00:25:16;;;;;;;21.23;18.23;;;;;;;;;;6147236;23;20235;-65
2021/09/03 00:28:01;;;;;;;27.53;19.70;;;;;;;;;;6147826;23;20228;-65
2021/09/03 00:30:46;;;;;;;23.37;18.33;;;;;;;;;;6147777;23;20741;-65
2021/09/03 00:33:31;;;;;;;23.27;19.07;;;;;;;;;;6147562;23;20514;-65
2021/09/03 00:36:17;;;;;;;26.20;19.60;;;;;;;;;;6147578;23;20215;-65
2021/09/03 00:39:02;;;;;;;27.30;20.90;;;;;;;;;;6147084;23;20172;-65
2021/09/03 00:41:47;;;;;;;24.10;19.57;;;;;;;;;;6147617;23;20221;-65
2021/09/03 00:44:32;;;;;;;25.60;19.80;;;;;;;;;;6146277;23;20224;-64
2021/09/03 00:47:17;;;;;;;24.27;19.97;;;;;;;;;;6147926;23;20174;-65
2021/09/03 00:50:02;;;;;;;26.88;22.92;;;;;;;;;;6148244;23;20378;-64
2021/09/03 00:52:48;;;;;;;28.40;21.43;;;;;;;;;;6149253;23;20232;-65
2021/09/03 00:55:34;;;;;;;24.70;20.33;;;;;;;;;;6148565;23;20175;-65
2021/09/03 00:58:21;;;;;;;26.03;20.10;;;;;;;;;;6147239;23;20480;-65
2021/09/03 01:01:05;;;;;;;26.27;20.37;;;;;;;;;;6147868;23;20562;-66
2021/09/03 01:03:50;;;;;;;27.07;20.63;;;;;;;;;;6147833;23;20191;-61
2021/09/03 01:06:36;;;;;;;28.73;21.30;;;;;;;;;;6148132;23;20698;-65
2021/09/03 01:09:23;;;;;;;31.00;21.63;;;;;;;;;;6147994;23;20174;-63
2021/09/03 01:12:08;;;;;;;31.33;24.38;;;;;;;;;;6148018;23;20735;-61
2021/09/03 01:14:53;;;;;;;27.43;21.43;;;;;;;;;;6148083;23;20518;-64
2021/09/03 01:17:40;;;;;;;29.60;23.00;;;;;;;;;;6149264;23;20216;-66
2021/09/03 01:20:25;;;;;;;24.80;20.90;;;;;;;;;;6148401;23;20205;-65
2021/09/03 01:23:13;;;;;;;31.17;21.63;;;;;;;;;;6147420;23;20192;-64
2021/09/03 01:26:00;;;;;;;29.37;22.70;;;;;;;;;;6147708;23;20631;-65
2021/09/03 01:28:46;;;;;;;28.00;21.73;;;;;;;;;;6148226;23;20667;-63
2021/09/03 01:31:32;;;;;;;27.37;22.33;;;;;;;;;;6147877;23;20258;-65
2021/09/03 01:34:16;;;;;;;27.37;21.83;;;;;;;;;;6147143;23;20169;-66
2021/09/03 01:37:01;;;;;;;28.70;22.17;;;;;;;;;;6148020;23;20173;-66
2021/09/03 01:39:48;;;;;;;31.13;22.20;;;;;;;;;;6147868;23;20332;-65
2021/09/03 01:42:33;;;;;;;28.27;22.67;;;;;;;;;;6148089;23;20641;-66
2021/09/03 01:45:18;;;;;;;27.13;23.33;;;;;;;;;;6147771;23;20706;-66
2021/09/03 01:48:03;;;;;;;27.73;22.47;;;;;;;;;;6149296;23;20174;-65
2021/09/03 01:50:48;;;;;;;29.40;23.77;;;;;;;;;;6147084;23;20224;-65
2021/09/03 01:53:33;;;;;;;30.67;22.67;;;;;;;;;;6148820;23;20231;-65
2021/09/03 01:56:19;;;;;;;32.50;23.17;;;;;;;;;;6146262;23;20175;-64
2021/09/03 01:59:05;;;;;;;28.93;23.57;;;;;;;;;;6147895;23;20505;-65
2021/09/03 02:01:50;;;;;;;33.60;24.57;;;;;;;;;;6147824;23;20740;-65
2021/09/03 02:04:35;;;;;;;32.80;23.50;;;;;;;;;;6146240;23;20244;-66
2021/09/03 02:07:20;;;;;;;32.17;23.37;;;;;;;;;;6147659;23;20685;-65
2021/09/03 02:10:06;;;;;;;29.83;23.40;;;;;;;;;;6148048;23;20205;-65
2021/09/03 02:12:52;;;;;;;30.73;23.80;;;;;;;;;;6147996;23;20245;-65
2021/09/03 02:15:37;;;;;;;31.77;24.30;;;;;;;;;;6147687;23;20287;-66
2021/09/03 02:18:22;;;;;;;28.83;24.10;;;;;;;;;;6148527;23;20247;-65
2021/09/03 02:21:07;;;;;;;30.53;22.83;;;;;;;;;;6148843;23;20208;-65
2021/09/03 02:23:52;;;;;;;31.90;24.63;;;;;;;;;;6146782;23;20655;-63
2021/09/03 02:26:37;;;;;;;33.80;25.60;;;;;;;;;;6147805;23;20173;-64
2021/09/03 02:29:23;;;;;;;32.70;24.90;;;;;;;;;;6148140;23;20168;-63
2021/09/03 02:32:08;;;;;;;31.70;25.27;;;;;;;;;;6147900;23;20573;-61
2021/09/03 02:34:53;;;;;;;32.50;25.30;;;;;;;;;;6147209;23;20174;-65
2021/09/03 02:37:38;;;;;;;32.67;24.87;;;;;;;;;;6148337;23;20185;-64
2021/09/03 02:40:23;;;;;;;34.17;25.43;;;;;;;;;;6147729;23;20200;-64
2021/09/03 02:43:08;;;;;;;33.23;25.90;;;;;;;;;;6148041;23;20438;-63
2021/09/03 02:45:54;;;;;;;34.27;26.20;;;;;;;;;;6148048;23;20168;-60
2021/09/03 02:48:39;;;;;;;30.27;25.67;;;;;;;;;;6148352;23;20217;-64
2021/09/03 02:51:24;;;;;;;34.97;27.67;;;;;;;;;;6148272;23;20288;-64
2021/09/03 02:54:09;;;;;;;34.00;26.00;;;;;;;;;;6147607;23;20178;-63
2021/09/03 02:56:54;;;;;;;32.30;26.43;;;;;;;;;;6148572;23;20171;-63
2021/09/03 02:59:38;;;;;;;30.57;26.23;;;;;;;;;;6148519;23;20263;-64
2021/09/03 03:02:25;;;;;;;34.20;26.60;;;;;;;;;;6148285;23;20660;-63
2021/09/03 03:05:10;;;;;;;32.30;26.07;;;;;;;;;;6147761;23;20539;-62
2021/09/03 03:07:57;;;;;;;33.47;25.80;;;;;;;;;;6148454;23;20170;-64
2021/09/03 03:10:42;;;;;;;36.93;27.30;;;;;;;;;;6148237;23;20267;-63
2021/09/03 03:13:28;;;;;;;36.87;25.23;;;;;;;;;;6148125;23;20168;-64
2021/09/03 03:16:13;;;;;;;33.57;25.83;;;;;;;;;;6147979;23;20247;-61
2021/09/03 03:19:00;;;;;;;34.90;26.30;;;;;;;;;;6148566;23;20172;-63
2021/09/03 03:21:45;;;;;;;31.70;27.33;;;;;;;;;;6148281;23;20243;-63
2021/09/03 03:24:30;;;;;;;34.27;28.17;;;;;;;;;;6147627;23;20197;-63
2021/09/03 03:27:15;;;;;;;36.40;32.45;;;;;;;;;;6146625;23;20452;-64
2021/09/03 03:29:59;;;;;;;38.10;29.00;;;;;;;;;;6148602;23;20244;-63
2021/09/03 03:32:44;;;;;;;35.10;28.40;;;;;;;;;;6148150;23;20173;-63
2021/09/03 03:35:31;;;;;;;41.77;28.73;;;;;;;;;;6147550;23;20189;-63
2021/09/03 03:38:16;;;;;;;36.83;28.60;;;;;;;;;;6148132;23;20172;-63
2021/09/03 03:41:01;;;;;;;38.60;28.50;;;;;;;;;;6147755;23;20550;-64
2021/09/03 03:43:46;;;;;;;39.83;28.80;;;;;;;;;;6148466;23;20780;-63
2021/09/03 03:46:31;;;;;;;38.83;28.47;;;;;;;;;;6147391;23;20176;-63
2021/09/03 03:49:16;;;;;;;36.30;27.83;;;;;;;;;;6148329;23;20219;-63
2021/09/03 03:52:03;;;;;;;36.40;28.93;;;;;;;;;;6148073;23;20173;-61
2021/09/03 03:54:48;;;;;;;39.30;29.13;;;;;;;;;;6147956;23;20164;-63
2021/09/03 03:57:33;;;;;;;36.47;28.50;;;;;;;;;;6147855;23;20668;-61
2021/09/03 04:00:17;;;;;;;38.97;29.03;;;;;;;;;;6148207;23;20334;-63
2021/09/03 04:03:02;;;;;;;40.37;30.50;;;;;;;;;;6147106;23;20194;-63
2021/09/03 04:05:47;;;;;;;38.63;29.80;;;;;;;;;;6147366;23;20251;-62
2021/09/03 04:08:33;;;;;;;37.50;30.00;;;;;;;;;;6148309;23;20215;-62
2021/09/03 04:11:18;;;;;;;41.73;29.00;;;;;;;;;;6147804;23;20216;-63
2021/09/03 04:14:03;;;;;;;43.77;31.60;;;;;;;;;;6147405;23;20602;-61
2021/09/03 04:16:48;;;;;;;40.30;31.00;;;;;;;;;;6147116;23;20719;-61
2021/09/03 04:19:33;;;;;;;41.23;31.57;;;;;;;;;;6148040;23;20219;-61
2021/09/03 04:22:18;;;;;;;45.23;32.43;;;;;;;;;;6147503;23;20167;-62
2021/09/03 04:25:04;;;;;;;40.40;31.10;;;;;;;;;;6148584;23;20163;-63
2021/09/03 04:27:49;;;;;;;44.80;31.73;;;;;;;;;;6149036;23;20168;-63
2021/09/03 04:30:34;;;;;;;42.00;31.80;;;;;;;;;;6149415;23;20248;-61
2021/09/03 04:33:19;;;;;;;49.07;38.93;;;;;;;;;;6147725;23;20484;-63
2021/09/03 04:36:05;;;;;;;41.07;32.67;;;;;;;;;;6148206;23;20171;-63
2021/09/03 04:38:50;;;;;;;42.80;32.70;;;;;;;;;;6149407;23;20273;-62
2021/09/03 04:41:36;;;;;;;46.67;33.17;;;;;;;;;;6148049;23;20210;-63
2021/09/03 04:44:21;;;;;;;45.53;33.83;;;;;;;;;;6148510;23;20578;-60
2021/09/03 04:47:06;;;;;;;46.40;34.23;;;;;;;;;;6149082;23;20595;-62
2021/09/03 04:49:51;;;;;;;44.50;33.60;;;;;;;;;;6149201;23;20260;-61
2021/09/03 04:52:35;;;;;;;45.13;33.93;;;;;;;;;;6148140;23;20173;-64
2021/09/03 04:55:20;;;;;;;44.83;33.23;;;;;;;;;;6148416;23;20254;-62
2021/09/03 04:58:07;;;;;;;45.80;31.90;;;;;;;;;;6149017;23;20173;-62
2021/09/03 05:00:52;;;;;;;43.80;34.13;;;;;;;;;;6148276;23;20212;-61
2021/09/03 05:03:36;;;;;;;45.97;34.67;;;;;;;;;;6149057;23;20533;-63
2021/09/03 05:06:21;;;;;;;48.13;32.53;;;;;;;;;;6147960;23;20623;-63
2021/09/03 05:09:06;;;;;;;46.63;35.60;;;;;;;;;;6149284;23;20546;-63
2021/09/03 05:11:51;;;;;;;46.87;35.50;;;;;;;;;;6148541;23;20571;-62
2021/09/03 05:14:37;;;;;;;48.63;34.00;;;;;;;;;;6148385;23;20250;-62
2021/09/03 05:17:22;;;;;;;50.53;39.90;;;;;;;;;;6147358;23;20378;-63
2021/09/03 05:20:08;;;;;;;46.80;36.03;;;;;;;;;;6149178;23;20204;-62
2021/09/03 05:22:53;;;;;;;50.10;36.37;;;;;;;;;;6148303;23;20237;-63
2021/09/03 05:25:38;;;;;;;43.67;35.77;;;;;;;;;;6148237;23;20607;-62
2021/09/03 05:28:23;;;;;;;48.60;35.67;;;;;;;;;;6148815;23;20554;-62
2021/09/03 05:31:09;;;;;;;50.20;34.67;;;;;;;;;;6149070;23;20764;-62
2021/09/03 05:33:55;;;;;;;43.17;34.00;;;;;;;;;;6147841;23;20233;-61
2021/09/03 05:36:39;;;;;;;40.60;32.93;;;;;;;;;;6148873;23;20666;-60
2021/09/03 05:39:24;;;;;;;44.75;38.28;;;;;;;;;;6148265;23;20371;-62
2021/09/03 05:42:12;;;;;;;44.07;34.10;;;;;;;;;;6149169;23;20170;-63
2021/09/03 05:44:57;;;;;;;42.07;33.37;;;;;;;;;;6148154;23;20197;-64
2021/09/03 05:47:44;;;;;;;42.27;34.67;;;;;;;;;;6147171;23;20195;-62
2021/09/03 05:50:29;;;;;;;46.00;32.93;;;;;;;;;;6147575;23;20210;-64
2021/09/03 05:53:14;;;;;;;42.53;32.37;;;;;;;;;;6147926;23;20619;-63
2021/09/03 05:55:59;;;;;;;36.03;31.10;;;;;;;;;;6146243;23;20194;-62
2021/09/03 05:58:43;;;;;;;37.07;31.87;;;;;;;;;;6147951;23;20627;-60
2021/09/03 06:01:28;;;;;;;39.40;31.30;;;;;;;;;;6147428;23;20234;-61
2021/09/03 06:04:15;;;;;;;37.53;32.20;;;;;;;;;;6146922;23;20194;-61
2021/09/03 06:07:00;;;;;;;37.03;30.00;;;;;;;;;;6147828;23;20173;-62
2021/09/03 06:09:45;;;;;;;38.80;31.67;;;;;;;;;;6147712;23;20282;-62
2021/09/03 06:12:29;;;;;;;37.27;31.23;;;;;;;;;;6147787;23;20246;-63
2021/09/03 06:15:14;;;;;;;36.43;30.70;;;;;;;;;;6146933;23;20170;-62
2021/09/03 06:17:59;;;;;;;34.10;29.23;;;;;;;;;;6147838;23;20179;-61
2021/09/03 06:20:45;;;;;;;31.20;27.27;;;;;;;;;;6146904;23;20769;-63
2021/09/03 06:23:30;;;;;;;32.63;29.20;;;;;;;;;;6146572;23;20407;-63
2021/09/03 06:26:15;;;;;;;30.57;26.30;;;;;;;;;;6147206;23;20210;-64
2021/09/03 06:29:00;;;;;;;28.87;25.97;;;;;;;;;;6147624;23;20171;-62
2021/09/03 06:31:45;;;;;;;29.63;26.43;;;;;;;;;;6147661;23;20166;-63
2021/09/03 06:34:30;;;;;;;29.80;26.60;;;;;;;;;;6147233;23;20171;-52
2021/09/03 06:37:17;;;;;;;29.90;26.20;;;;;;;;;;6148224;23;20346;-58
2021/09/03 06:40:02;;;;;;;31.17;27.80;;;;;;;;;;6147232;23;20249;-61
2021/09/03 06:42:48;;;;;;;30.03;26.83;;;;;;;;;;6147758;23;20170;-64
2021/09/03 06:45:32;;;;;;;27.60;24.97;;;;;;;;;;6146110;23;20281;-63
2021/09/03 06:48:22;;;;;;;28.50;25.37;;;;;;;;;;6147629;23;20221;-64
2021/09/03 06:51:07;;;;;;;30.30;27.03;;;;;;;;;;6147801;23;20337;-63
2021/09/03 06:53:53;;;;;;;26.80;24.10;;;;;;;;;;6146840;23;20167;-64
2021/09/03 06:56:38;;;;;;;26.70;23.90;;;;;;;;;;6147569;23;20213;-64
2021/09/03 06:59:23;;;;;;;29.03;25.40;;;;;;;;;;6146794;23;20175;-60
2021/09/03 07:02:08;;;;;;;27.03;24.13;;;;;;;;;;6147431;23;20254;-65
2021/09/03 07:04:53;;;;;;;28.87;25.77;;;;;;;;;;6146374;23;20270;-62
2021/09/03 07:07:38;;;;;;;27.60;24.90;;;;;;;;;;6147404;23;20171;-63
2021/09/03 07:10:24;;;;;;;26.47;23.73;;;;;;;;;;6147405;23;20206;-63
2021/09/03 07:13:11;;;;;;;26.43;23.63;;;;;;;;;;6147892;23;20174;-63
2021/09/03 07:15:56;;;;;;;25.73;23.20;;;;;;;;;;6146643;23;20241;-64
2021/09/03 07:18:41;;;;;;;25.47;22.80;;;;;;;;;;6145958;23;20174;-63
2021/09/03 07:21:26;;;;;;;26.73;24.17;;;;;;;;;;6147082;23;20206;-62
2021/09/03 07:24:11;;;;;;;25.60;23.03;;;;;;;;;;6146146;23;20191;-61
2021/09/03 07:26:57;;;;;;;25.50;22.90;;;;;;;;;;6147136;23;20169;-63
2021/09/03 07:29:42;;;;;;;26.37;23.50;;;;;;;;;;6147468;23;20277;-63
2021/09/03 07:32:28;;;;;;;25.47;22.77;;;;;;;;;;6147946;23;20629;-61
2021/09/03 07:35:13;;;;;;;25.43;22.77;;;;;;;;;;6147512;23;20210;-63
2021/09/03 07:37:58;;;;;;;24.97;22.60;;;;;;;;;;6148295;23;20171;-63
2021/09/03 07:40:43;;;;;;;25.70;23.00;;;;;;;;;;6148322;23;20204;-63
2021/09/03 07:43:30;;;;;;;23.13;20.93;;;;;;;;;;6147533;23;20276;-64
2021/09/03 07:46:14;;;;;;;23.63;21.17;;;;;;;;;;6147246;23;20296;-63
2021/09/03 07:49:00;;;;;;;23.03;20.83;;;;;;;;;;6147722;23;20257;-63
2021/09/03 07:51:45;;;;;;;21.93;19.67;;;;;;;;;;6147350;23;20247;-63
2021/09/03 07:54:30;;;;;;;25.05;22.55;;;;;;;;;;6146328;23;20433;-63
2021/09/03 07:57:14;;;;;;;23.37;20.90;;;;;;;;;;6147664;23;20220;-63
2021/09/03 08:00:01;;;;;;;22.03;19.70;;;;;;;;;;6147913;23;20274;-64
2021/09/03 08:02:46;;;;;;;21.60;19.13;;;;;;;;;;6148239;23;20170;-61
2021/09/03 08:05:31;;;;;;;20.77;18.73;;;;;;;;;;6147379;23;20656;-63
2021/09/03 08:08:16;;;;;;;20.20;18.20;;;;;;;;;;6148787;23;20278;-60
2021/09/03 08:11:01;;;;;;;19.47;17.47;;;;;;;;;;6148100;23;20218;-63
2021/09/03 08:13:46;;;;;;;20.73;18.57;;;;;;;;;;6148041;23;20167;-63
2021/09/03 08:16:32;;;;;;;20.47;18.47;;;;;;;;;;6148429;23;20167;-63
2021/09/03 08:19:17;;;;;;;19.50;17.60;;;;;;;;;;6147986;23;20230;-65
2021/09/03 08:22:02;;;;;;;19.07;17.27;;;;;;;;;;6148083;23;20236;-62
2021/09/03 08:24:47;;;;;;;18.93;16.63;;;;;;;;;;6146509;23;20229;-65
2021/09/03 08:27:33;;;;;;;19.53;17.53;;;;;;;;;;6147771;23;20217;-64
2021/09/03 08:30:18;;;;;;;17.73;16.03;;;;;;;;;;6147490;23;20297;-64
2021/09/03 08:33:04;;;;;;;18.17;16.23;;;;;;;;;;6147933;23;20171;-64
2021/09/03 08:35:49;;;;;;;18.40;15.97;;;;;;;;;;6146523;23;20523;-63
2021/09/03 08:38:34;;;;;;;18.40;16.30;;;;;;;;;;6148005;23;20224;-64
2021/09/03 08:41:19;;;;;;;16.23;14.63;;;;;;;;;;6147755;23;20631;-61
2021/09/03 08:44:05;;;;;;;16.03;14.37;;;;;;;;;;6146959;23;20237;-64
2021/09/03 08:46:49;;;;;;;19.67;14.70;;;;;;;;;;6147814;23;20178;-63
2021/09/03 08:49:36;;;;;;;15.60;13.77;;;;;;;;;;6147211;23;20681;-64
2021/09/03 08:52:21;;;;;;;15.83;13.37;;;;;;;;;;6147693;23;20221;-63
2021/09/03 08:55:06;;;;;;;14.80;13.20;;;;;;;;;;6146905;23;20228;-64
2021/09/03 08:57:51;;;;;;;15.70;14.10;;;;;;;;;;6147727;23;20220;-64
2021/09/03 09:00:37;;;;;;;16.63;14.85;;;;;;;;;;6146916;23;20383;-65
2021/09/03 09:03:22;;;;;;;15.43;13.80;;;;;;;;;;6147678;23;20208;-64
2021/09/03 09:06:08;;;;;;;14.70;13.30;;;;;;;;;;6146735;23;20302;-65
2021/09/03 09:08:54;;;;;;;15.10;13.23;;;;;;;;;;6147600;23;20171;-64
2021/09/03 09:11:40;;;;;;;15.20;13.60;;;;;;;;;;6148724;23;20173;-64
2021/09/03 09:14:25;;;;;;;15.10;13.70;;;;;;;;;;6147678;23;20168;-64
2021/09/03 09:17:10;;;;;;;14.10;12.70;;;;;;;;;;6148401;23;20175;-64
2021/09/03 09:19:54;;;;;;;15.63;13.23;;;;;;;;;;6149022;23;20208;-64
2021/09/03 09:22:54;;;;;;;14.37;12.87;;;;;;;;;;6148928;23;20179;-64
2021/09/03 09:25:39;;;;;;;14.30;12.80;;;;;;;;;;6147416;23;20239;-64
2021/09/03 09:28:24;;;;;;;14.13;12.83;;;;;;;;;;6148839;23;20172;-64
2021/09/03 09:31:09;;;;;;;14.17;12.67;;;;;;;;;;6148680;23;20211;-64
2021/09/03 09:33:55;;;;;;;13.87;12.57;;;;;;;;;;6146781;23;20507;-63
2021/09/03 09:36:40;;;;;;;15.87;13.13;;;;;;;;;;6147965;23;20175;-64
2021/09/03 09:39:26;;;;;;;16.00;12.97;;;;;;;;;;6146638;23;20168;-65
2021/09/03 09:42:18;;;;;;;13.87;12.50;;;;;;;;;;6145656;23;20646;-66
2021/09/03 09:45:04;;;;;;;14.57;13.18;;;;;;;;;;6146047;23;20410;-66
2021/09/03 09:47:49;;;;;;;13.93;12.53;;;;;;;;;;6147507;23;20583;-65
2021/09/03 09:50:34;;;;;;;13.97;12.47;;;;;;;;;;6147657;23;20280;-63
2021/09/03 09:53:20;;;;;;;13.57;12.10;;;;;;;;;;6147897;23;20250;-65
2021/09/03 09:56:06;;;;;;;13.50;12.17;;;;;;;;;;6147997;23;20250;-65
2021/09/03 09:58:52;;;;;;;12.93;11.63;;;;;;;;;;6148770;23;20171;-64
2021/09/03 10:01:38;;;;;;;11.63;10.37;;;;;;;;;;6147150;23;20192;-64
2021/09/03 10:04:24;;;;;;;12.77;11.57;;;;;;;;;;6147802;23;20179;-65
2021/09/03 10:07:09;;;;;;;12.10;10.70;;;;;;;;;;6148582;23;20173;-64
2021/09/03 10:09:54;;;;;;;12.00;10.80;;;;;;;;;;6148738;23;20222;-64
2021/09/03 10:12:40;;;;;;;12.47;11.10;;;;;;;;;;6148341;23;20276;-64
2021/09/03 10:15:25;;;;;;;10.80;9.70;;;;;;;;;;6146623;23;20170;-64
2021/09/03 10:18:11;;;;;;;12.93;11.20;;;;;;;;;;6147009;23;20386;-64
2021/09/03 10:20:56;;;;;;;11.27;10.07;;;;;;;;;;6148054;23;20222;-63
2021/09/03 10:23:47;;;;;;;10.37;9.27;;;;;;;;;;6148048;23;20275;-64
2021/09/03 10:26:33;;;;;;;10.57;9.47;;;;;;;;;;6147815;23;20237;-63
2021/09/03 10:29:23;;;;;;;10.17;9.17;;;;;;;;;;6148623;23;20633;-64
2021/09/03 10:32:13;;;;;;;10.47;9.33;;;;;;;;;;6148246;23;20173;-63
2021/09/03 10:35:00;;;;;;;11.67;9.73;;;;;;;;;;6147133;23;20290;-66
2021/09/03 10:37:46;;;;;;;10.47;9.20;;;;;;;;;;6147811;23;20608;-64
2021/09/03 10:40:40;;;;;;;10.67;9.50;;;;;;;;;;6148558;23;20210;-63
2021/09/03 10:43:41;;;;;;;11.07;9.87;;;;;;;;;;6147829;23;20305;-64
2021/09/03 10:46:27;;;;;;;10.80;9.73;;;;;;;;;;6147789;23;20194;-64
2021/09/03 10:49:12;;;;;;;10.80;9.30;;;;;;;;;;6147988;23;20173;-63
2021/09/03 10:52:10;;;;;;;11.57;9.63;;;;;;;;;;6147339;23;20173;-64
2021/09/03 10:54:55;;;;;;;11.03;10.03;;;;;;;;;;6147766;23;20556;-64
2021/09/03 10:57:54;;;;;;;11.03;9.83;;;;;;;;;;6148369;23;20170;-65
2021/09/03 11:00:39;;;;;;;10.60;8.83;;;;;;;;;;6147873;23;20230;-65
2021/09/03 11:03:40;;;;;;;11.80;10.60;;;;;;;;;;6147422;23;20170;-63
2021/09/03 11:06:30;;;;;;;9.27;8.43;;;;;;;;;;6147442;23;20288;-64
2021/09/03 11:09:23;;;;;;;10.17;9.07;;;;;;;;;;6148325;23;20252;-64
2021/09/03 11:12:10;;;;;;;12.07;9.57;;;;;;;;;;6148551;23;20248;-64
2021/09/03 11:14:56;;;;;;;10.87;9.43;;;;;;;;;;6147155;23;20171;-65
2021/09/03 11:17:41;;;;;;;9.73;8.83;;;;;;;;;;6148559;23;20251;-65
2021/09/03 11:20:27;;;;;;;10.53;9.53;;;;;;;;;;6147910;23;20206;-64
2021/09/03 11:23:12;;;;;;;10.85;9.75;;;;;;;;;;6146307;23;20440;-64
2021/09/03 11:26:12;;;;;;;10.37;9.20;;;;;;;;;;6145687;23;20209;-65
2021/09/03 11:28:59;;;;;;;11.13;9.93;;;;;;;;;;6147238;23;20536;-64
2021/09/03 11:31:52;;;;;;;10.80;9.37;;;;;;;;;;6147345;23;20182;-65
2021/09/03 11:34:58;;;;;;;10.00;9.07;;;;;;;;;;6147268;23;20171;-64
2021/09/03 11:37:45;;;;;;;10.73;9.63;;;;;;;;;;6146932;23;20237;-64
2021/09/03 11:40:31;;;;;;;12.90;9.93;;;;;;;;;;6148114;23;20210;-65
2021/09/03 11:43:20;;;;;;;9.50;8.43;;;;;;;;;;6148553;23;20249;-66
2021/09/03 11:46:14;;;;;;;9.20;8.30;;;;;;;;;;6147432;23;20243;-64
2021/09/03 11:48:59;;;;;;;9.77;8.77;;;;;;;;;;6148907;23;20233;-65
2021/09/03 11:51:44;;;;;;;11.30;9.57;;;;;;;;;;6148461;23;20236;-64
2021/09/03 11:54:30;;;;;;;10.23;9.23;;;;;;;;;;6146969;23;20696;-65
2021/09/03 11:57:15;;;;;;;10.80;9.27;;;;;;;;;;6148035;23;20163;-64
2021/09/03 12:00:02;;;;;;;10.07;9.07;;;;;;;;;;6147844;23;20215;-65
2021/09/03 12:02:47;;;;;;;11.00;9.90;;;;;;;;;;6147153;23;20216;-64
2021/09/03 12:05:32;;;;;;;13.90;9.93;;;;;;;;;;6144997;23;20660;-62
2021/09/03 12:08:26;;;;;;;11.23;10.03;;;;;;;;;;6146931;23;20247;-64
2021/09/03 12:11:13;;;;;;;11.67;10.50;;;;;;;;;;6145196;23;20256;-64
2021/09/03 12:13:59;;;;;;;10.43;9.20;;;;;;;;;;6147482;23;20598;-64
2021/09/03 12:16:48;;;;;;;13.00;9.67;;;;;;;;;;6147794;23;20253;-64
2021/09/03 12:19:37;;;;;;;10.80;8.80;;;;;;;;;;6146976;23;20202;-65
2021/09/03 12:22:22;;;;;;;10.37;8.90;;;;;;;;;;6147801;23;20687;-65
2021/09/03 12:25:07;;;;;;;10.03;8.70;;;;;;;;;;6146930;23;20194;-64
2021/09/03 12:28:06;;;;;;;11.55;9.60;;;;;;;;;;6147087;23;20379;-64
2021/09/03 12:30:52;;;;;;;12.10;10.03;;;;;;;;;;6147385;23;20210;-64
2021/09/03 12:33:37;;;;;;;13.23;9.80;;;;;;;;;;6147154;23;20174;-65
2021/09/03 12:36:23;;;;;;;9.47;8.67;;;;;;;;;;6147253;23;20253;-64
2021/09/03 12:39:10;;;;;;;9.93;8.93;;;;;;;;;;6147322;23;20171;-65
2021/09/03 12:41:55;;;;;;;8.57;7.73;;;;;;;;;;6147496;23;20209;-64
2021/09/03 12:44:41;;;;;;;11.87;8.90;;;;;;;;;;6147727;23;20253;-64
2021/09/03 12:47:26;;;;;;;9.23;8.40;;;;;;;;;;6148990;23;20544;-63
2021/09/03 12:50:11;;;;;;;9.33;7.73;;;;;;;;;;6149098;23;20577;-64
2021/09/03 12:52:56;;;;;;;9.83;8.67;;;;;;;;;;6148312;23;20309;-63
2021/09/03 12:55:41;;;;;;;8.97;8.07;;;;;;;;;;6147221;23;20172;-64
2021/09/03 12:58:27;;;;;;;8.00;7.30;;;;;;;;;;6148485;23;20171;-64
2021/09/03 13:01:13;;;;;;;9.03;8.13;;;;;;;;;;6148904;23;20292;-64
2021/09/03 13:03:59;;;;;;;9.43;8.07;;;;;;;;;;6148188;23;20626;-65
2021/09/03 13:06:47;;;;;;;9.77;8.60;;;;;;;;;;6148870;23;20233;-66
2021/09/03 13:09:32;;;;;;;11.07;9.50;;;;;;;;;;6148079;23;20815;-64
2021/09/03 13:12:17;;;;;;;10.57;9.00;;;;;;;;;;6149112;23;20167;-64
2021/09/03 13:15:02;;;;;;;12.97;9.67;;;;;;;;;;6147936;23;20788;-63
2021/09/03 13:17:48;;;;;;;9.80;8.80;;;;;;;;;;6148279;23;20621;-64
2021/09/03 13:20:34;;;;;;;10.00;8.87;;;;;;;;;;6148448;23;20253;-62
2021/09/03 13:23:19;;;;;;;10.00;9.00;;;;;;;;;;6148372;23;20205;-63
2021/09/03 13:26:04;;;;;;;9.83;8.93;;;;;;;;;;6147150;23;20194;-64
2021/09/03 13:28:49;;;;;;;9.03;8.23;;;;;;;;;;6147087;23;20229;-65
2021/09/03 13:31:34;;;;;;;10.50;9.43;;;;;;;;;;6148600;23;20637;-64
2021/09/03 13:34:23;;;;;;;8.93;8.13;;;;;;;;;;6147796;23;20167;-64
2021/09/03 13:37:08;;;;;;;10.55;9.65;;;;;;;;;;6147996;23;20360;-64
2021/09/03 13:39:53;;;;;;;10.40;9.30;;;;;;;;;;6148627;23;20214;-64
2021/09/03 13:42:38;;;;;;;10.00;8.50;;;;;;;;;;6147888;23;20167;-64
2021/09/03 13:45:23;;;;;;;10.37;9.20;;;;;;;;;;6146993;23;20553;-64
2021/09/03 13:48:09;;;;;;;9.70;8.70;;;;;;;;;;6146696;23;20183;-64
2021/09/03 13:50:55;;;;;;;10.63;9.53;;;;;;;;;;6147981;23;20272;-65
2021/09/03 13:53:40;;;;;;;10.83;9.73;;;;;;;;;;6148307;23;20168;-64
2021/09/03 13:56:26;;;;;;;10.10;9.10;;;;;;;;;;6147558;23;20252;-65
2021/09/03 13:59:12;;;;;;;10.17;9.17;;;;;;;;;;6148905;23;20170;-65
2021/09/03 14:01:57;;;;;;;10.40;8.93;;;;;;;;;;6147616;23;20171;-65
2021/09/03 14:04:42;;;;;;;10.03;9.23;;;;;;;;;;6146438;23;20701;-64
2021/09/03 14:07:28;;;;;;;10.30;9.30;;;;;;;;;;6147338;23;20522;-64
2021/09/03 14:10:13;;;;;;;10.00;8.97;;;;;;;;;;6147486;23;20305;-64
2021/09/03 14:12:58;;;;;;;9.50;8.60;;;;;;;;;;6147715;23;20217;-65
2021/09/03 14:15:43;;;;;;;9.77;8.63;;;;;;;;;;6146320;23;20163;-61
2021/09/03 14:18:28;;;;;;;10.10;9.10;;;;;;;;;;6147480;23;20236;-64
2021/09/03 14:21:13;;;;;;;11.10;9.87;;;;;;;;;;6147071;23;20596;-64
2021/09/03 14:24:00;;;;;;;10.90;9.80;;;;;;;;;;6147244;23;20170;-65
2021/09/03 14:26:45;;;;;;;11.40;9.70;;;;;;;;;;6148989;23;20522;-64
2021/09/03 14:29:30;;;;;;;10.83;9.73;;;;;;;;;;6148473;23;20170;-64
2021/09/03 14:32:15;;;;;;;11.70;10.60;;;;;;;;;;6146314;23;20171;-64
2021/09/03 14:35:00;;;;;;;11.67;9.57;;;;;;;;;;6146025;23;20187;-63
2021/09/03 14:37:45;;;;;;;10.73;9.53;;;;;;;;;;6147071;23;20166;-63
2021/09/03 14:40:32;;;;;;;14.07;10.10;;;;;;;;;;6148147;23;20280;-64
2021/09/03 14:43:18;;;;;;;12.03;9.43;;;;;;;;;;6148036;23;20171;-62
2021/09/03 14:46:03;;;;;;;10.97;8.83;;;;;;;;;;6146782;23;20249;-64
2021/09/03 14:48:48;;;;;;;10.00;9.00;;;;;;;;;;6148559;23;20717;-63
2021/09/03 14:51:33;;;;;;;10.63;9.63;;;;;;;;;;6146352;23;20780;-64
2021/09/03 14:54:18;;;;;;;10.33;9.30;;;;;;;;;;6146187;23;20186;-63
2021/09/03 14:57:06;;;;;;;9.70;8.80;;;;;;;;;;6147574;23;20507;-64
2021/09/03 14:59:51;;;;;;;10.20;9.07;;;;;;;;;;6148058;23;20553;-63
2021/09/03 15:02:36;;;;;;;10.87;9.70;;;;;;;;;;6147648;23;20256;-63
2021/09/03 15:05:21;;;;;;;10.33;9.30;;;;;;;;;;6146882;23;20206;-65
2021/09/03 15:08:07;;;;;;;11.03;9.97;;;;;;;;;;6148318;23;20241;-66
2021/09/03 15:10:52;;;;;;;11.13;10.20;;;;;;;;;;6147074;23;20336;-67
2021/09/03 15:13:38;;;;;;;11.20;10.10;;;;;;;;;;6147583;23;20182;-67
2021/09/03 15:16:23;;;;;;;11.07;9.37;;;;;;;;;;6146390;23;20217;-67
2021/09/03 15:19:08;;;;;;;10.63;9.60;;;;;;;;;;6146949;23;20186;-66
2021/09/03 15:21:55;;;;;;;10.13;9.10;;;;;;;;;;6147312;23;20672;-65
2021/09/03 15:24:40;;;;;;;10.60;9.50;;;;;;;;;;6146003;23;20513;-64
2021/09/03 15:27:25;;;;;;;10.98;9.98;;;;;;;;;;6147951;23;20527;-66
2021/09/03 15:30:12;;;;;;;10.73;9.30;;;;;;;;;;6147452;23;20252;-66
2021/09/03 15:32:57;;;;;;;10.80;9.77;;;;;;;;;;6148230;23;20167;-67
2021/09/03 15:35:42;;;;;;;12.13;10.30;;;;;;;;;;6147609;23;20175;-67
2021/09/03 15:38:27;;;;;;;13.80;10.07;;;;;;;;;;6148368;23;20234;-65
2021/09/03 15:41:12;;;;;;;10.40;9.50;;;;;;;;;;6147036;23;20259;-65
2021/09/03 15:43:57;;;;;;;10.83;9.87;;;;;;;;;;6147408;23;20225;-65
2021/09/03 15:46:44;;;;;;;10.53;9.47;;;;;;;;;;6146807;23;20194;-66
2021/09/03 15:49:28;;;;;;;11.40;10.40;;;;;;;;;;6147894;23;20182;-66
2021/09/03 15:52:13;;;;;;;12.05;10.75;;;;;;;;;;6147179;23;20386;-66
2021/09/03 15:54:58;;;;;;;10.90;9.83;;;;;;;;;;6147535;23;20167;-66
2021/09/03 15:57:43;;;;;;;11.80;10.70;;;;;;;;;;6147491;23;20178;-65
2021/09/03 16:00:28;;;;;;;11.53;10.33;;;;;;;;;;6147240;23;20535;-66
2021/09/03 16:03:15;;;;;;;11.40;10.23;;;;;;;;;;6148526;23;20167;-66
2021/09/03 16:06:00;;;;;;;10.83;9.87;;;;;;;;;;6147277;23;20170;-65
2021/09/03 16:08:45;;;;;;;11.03;9.93;;;;;;;;;;6147491;23;20221;-66